Naples, FL (34101)

11:38 PM EST on December 24, 2014 (GMT -0500)
KFLNAPLE31 | Change Station
CLOSE
Current Station
Personal Weather Station
Location: Naples, FL
Elevation: 20 ft
Nearby Weather Stations

Elev 20 ft 26.16 °N, 81.78 °W | Updated 10 minutes ago

Rain
Rain
71.6 °F
Feels Like 71.6 °F
N
5.0
Wind Variable Wind from NW
Gusts 20.0 mph

Today
High -- | Low -- °F
--% Chance of Precip.
Yesterday
High -- | Low -- °F
Precip. -- in
7:11 AM 5:42 PM
Waxing Crescent, 13% visible
Pressure 30.00 in
Visibility 8.0 miles
Clouds Scattered Clouds 1100 ft
Mostly Cloudy 1900 ft
Overcast 7000 ft
Dew Point 69 °F
Humidity 91%
Rainfall 0.18 in
Snow Depth Not available.
UV 0 out of 12
Pollen 2.60 out of 12
Air Quality Not available.
Flu Activity Not available.
SPECI KAPF 250427Z AUTO 32011G17KT 8SM SCT011 BKN019 OVC070 21/20 A3000 RMK AO2 LTG DSNT NE-SE RAE09 P0002 T02110200

More Conditions Fewer Conditions

Pressure 30.00 in
Visibility 8.0 miles
Clouds Scattered Clouds 1100 ft
Mostly Cloudy 1900 ft
Overcast 7000 ft
Dew Point 69 °F
Humidity 91%
Rainfall 0.18 in
Snow Depth Not available.
UV 0 out of 12
Pollen 2.60 out of 12
Air Quality Not available.
Flu Activity Not available.
SPECI KAPF 250427Z AUTO 32011G17KT 8SM SCT011 BKN019 OVC070 21/20 A3000 RMK AO2 LTG DSNT NE-SE RAE09 P0002 T02110200

More Conditions Fewer Conditions

Nowcast | as of 10:59 PM EST on December 24, 2014

Through midnight...a line of showers with a few embedded thunderstorms will continue to move east northeast at 20 to 25 mph from the Gulf of Mexico into the West Coast Metro areas and the western interior areas of South Florida. Wind gusts up to 30 mph...lightning strikes...and locally heavy rainfall can accompany any storms that do move through the area. If you see lightning or hear thunder move inside until the storms have passed by. Mariners can also except higher waves in and near the showers and thunderstorms.

×

10-Day Weather Forecast

Almanac

Astronomy

Dec. 24, 2014 Rise Set
Actual Time
Civil Twilight
Nautical Twilight
Astronomical Twilight
Moon
Length of Visible Light
Length of Day
Tomorrow will be .
, % of the Moon is Illuminated

Today's Extremes

State Highs State Lows

Community

WunderPhotos

Upload Photos

1,780,236 photos uploaded!

WunderBlogs® & News

Nearby

Air Quality

  Air Quality AQ Index Pollutant
Not available.

Snow Depth

Station Depth Elevation

Earthquake Activity

City Distance Mag. Time & Date
Minimum magnitude displayed is 2.5.

Coastal Water Temperatures

Place Temperature

Nearby Weather Stations